Time;durP1;ratioP1;P1;durP2;ratioP2;P2;SDS_P1;SDS_P2;PMS_P1;PMS_P2;Temp;Humidity;BMP_temperature;BMP_pressure;BME280_temperature;BME280_humidity;BME280_pressure;Samples;Min_cycle;Max_cycle;Signal;HPM_P1;HPM_P2
2024/02/14 00:00:17;;;;;;;2.23;1.40;;;5.10;99.90;;;;;;5043718;28;20577;-93
2024/02/14 00:02:44;;;;;;;4.03;1.70;;;5.10;99.90;;;;;;5034486;28;20221;-94
2024/02/14 00:05:10;;;;;;;5.47;1.60;;;5.20;99.90;;;;;;5046015;28;20301;-94
2024/02/14 00:07:39;;;;;;;2.60;1.53;;;5.20;99.90;;;;;;5047430;28;20268;-93
2024/02/14 00:10:05;;;;;;;2.90;1.60;;;5.30;99.90;;;;;;5045457;28;20174;-93
2024/02/14 00:12:32;;;;;;;5.40;1.67;;;5.30;99.90;;;;;;5043494;28;20239;-94
2024/02/14 00:14:58;;;;;;;5.37;1.90;;;5.30;99.90;;;;;;5041680;28;20269;-93
2024/02/14 00:17:25;;;;;;;2.57;1.50;;;5.30;99.90;;;;;;5032071;28;20213;-94
2024/02/14 00:19:51;;;;;;;4.50;1.40;;;5.30;99.90;;;;;;5046083;28;20190;-94
2024/02/14 00:22:17;;;;;;;8.00;1.63;;;5.30;99.90;;;;;;5026356;28;20197;-94
2024/02/14 00:24:43;;;;;;;4.70;1.77;;;5.40;99.90;;;;;;5033540;28;20628;-93
2024/02/14 00:27:08;;;;;;;3.07;1.60;;;5.30;99.90;;;;;;5033513;28;20525;-93
2024/02/14 00:29:34;;;;;;;3.90;1.87;;;5.30;99.90;;;;;;5042317;28;20178;-93
2024/02/14 00:32:01;;;;;;;4.10;1.77;;;5.30;99.90;;;;;;5025786;28;20183;-93
2024/02/14 00:34:32;;;;;;;5.13;1.43;;;5.30;99.90;;;;;;5033721;28;20209;-94
2024/02/14 00:36:58;;;;;;;3.33;1.60;;;5.30;99.90;;;;;;5035272;28;20186;-94
2024/02/14 00:39:23;;;;;;;3.60;1.47;;;5.40;99.90;;;;;;5034086;28;20186;-94
2024/02/14 00:41:52;;;;;;;4.63;1.50;;;5.30;99.90;;;;;;5043273;28;20210;-93
2024/02/14 00:44:19;;;;;;;4.93;1.87;;;5.30;99.90;;;;;;5053182;28;20193;-92
2024/02/14 00:46:45;;;;;;;3.63;1.23;;;5.40;99.90;;;;;;5053566;28;20185;-93
2024/02/14 00:49:11;;;;;;;2.50;1.43;;;5.40;99.90;;;;;;5037328;28;20209;-93
2024/02/14 00:51:40;;;;;;;4.73;1.60;;;5.40;99.90;;;;;;5040048;28;20182;-93
2024/02/14 00:54:19;;;;;;;3.23;1.53;;;5.40;99.90;;;;;;5035087;28;20179;-91
2024/02/14 00:56:45;;;;;;;2.77;1.40;;;5.40;99.90;;;;;;5033845;28;20275;-92
2024/02/14 00:59:10;;;;;;;3.87;1.67;;;5.40;99.90;;;;;;5051395;28;20593;-91
2024/02/14 01:01:36;;;;;;;1.53;1.07;;;5.40;99.90;;;;;;5026705;28;20265;-93
2024/02/14 01:04:14;;;;;;;5.60;1.97;;;5.40;99.90;;;;;;5033386;28;20271;-92
2024/02/14 01:06:40;;;;;;;3.67;1.60;;;5.40;99.90;;;;;;5035052;28;20182;-93
2024/02/14 01:09:06;;;;;;;2.90;1.57;;;5.40;99.90;;;;;;5037928;28;20209;-92
2024/02/14 01:11:34;;;;;;;3.97;1.50;;;5.40;99.90;;;;;;5028467;28;20497;-93
2024/02/14 01:14:01;;;;;;;5.60;1.40;;;5.40;99.90;;;;;;5032154;28;20210;-93
2024/02/14 01:18:58;;;;;;;2.20;1.43;;;5.40;99.90;;;;;;5026226;28;20233;-87
2024/02/14 01:21:24;;;;;;;3.77;1.60;;;5.40;99.90;;;;;;5032666;28;20222;-88
2024/02/14 01:23:52;;;;;;;5.67;1.53;;;5.30;99.90;;;;;;5016866;28;20195;-88
2024/02/14 01:26:17;;;;;;;3.43;1.50;;;5.30;99.90;;;;;;5036680;28;20655;-88
2024/02/14 01:28:44;;;;;;;5.20;1.23;;;5.30;99.90;;;;;;5030191;28;20187;-87
2024/02/14 01:31:11;;;;;;;3.53;1.60;;;5.40;99.90;;;;;;5035403;28;20193;-88
2024/02/14 01:33:37;;;;;;;3.63;1.63;;;5.30;99.90;;;;;;5057106;28;20228;-88
2024/02/14 01:36:05;;;;;;;4.40;1.33;;;5.40;99.90;;;;;;5031121;28;20579;-88
2024/02/14 01:38:35;;;;;;;2.67;1.50;;;5.40;99.90;;;;;;5033704;28;20189;-89
2024/02/14 01:41:04;;;;;;;3.73;1.40;;;5.40;99.90;;;;;;5031539;28;20224;-89
2024/02/14 01:43:31;;;;;;;2.20;1.40;;;5.40;99.90;;;;;;5040126;28;20190;-88
2024/02/14 01:46:06;;;;;;;2.53;1.57;;;5.40;99.90;;;;;;5039742;28;20243;-89
2024/02/14 01:48:34;;;;;;;5.43;1.70;;;5.40;99.90;;;;;;5024793;28;20239;-87
2024/02/14 01:51:02;;;;;;;3.43;1.37;;;5.40;99.90;;;;;;5040150;28;20220;-88
2024/02/14 01:53:32;;;;;;;2.57;1.20;;;5.40;99.90;;;;;;5039736;28;20192;-88
2024/02/14 01:56:00;;;;;;;4.37;1.70;;;5.40;99.90;;;;;;5065123;28;20194;-88
2024/02/14 01:58:29;;;;;;;1.93;1.33;;;5.40;99.90;;;;;;5039973;28;20257;-88
2024/02/14 02:00:56;;;;;;;1.53;1.20;;;5.40;99.90;;;;;;5039712;28;20245;-87
2024/02/14 02:03:24;;;;;;;4.47;1.73;;;5.40;99.90;;;;;;5040145;28;20239;-87
2024/02/14 02:05:51;;;;;;;4.37;1.60;;;5.40;99.90;;;;;;5039636;28;20628;-89
2024/02/14 02:08:17;;;;;;;4.17;1.53;;;5.40;99.90;;;;;;5031411;28;20635;-88
2024/02/14 02:10:43;;;;;;;2.50;1.33;;;5.40;99.90;;;;;;5039592;28;20198;-88
2024/02/14 02:13:12;;;;;;;2.53;1.33;;;5.40;99.90;;;;;;5031212;28;20185;-89
2024/02/14 02:15:38;;;;;;;2.60;1.30;;;5.40;99.90;;;;;;5039715;28;20190;-88
2024/02/14 02:18:07;;;;;;;5.33;1.50;;;5.30;99.90;;;;;;5033238;28;20253;-88
2024/02/14 02:20:34;;;;;;;4.33;1.30;;;5.30;99.90;;;;;;5039470;28;20228;-88
2024/02/14 02:23:00;;;;;;;2.13;1.40;;;5.30;99.90;;;;;;5039472;28;20200;-88
2024/02/14 02:25:26;;;;;;;6.93;1.73;;;5.30;99.90;;;;;;5039361;28;20189;-88
2024/02/14 02:27:56;;;;;;;2.70;1.43;;;5.30;99.90;;;;;;5039265;28;20276;-88
2024/02/14 02:30:27;;;;;;;4.37;1.97;;;5.30;99.90;;;;;;5039157;28;20264;-87
2024/02/14 02:32:52;;;;;;;2.47;1.60;;;5.30;99.90;;;;;;5056705;28;20245;-87
2024/02/14 02:35:20;;;;;;;2.67;1.40;;;5.30;99.90;;;;;;5045282;28;20262;-88
2024/02/14 02:37:47;;;;;;;1.77;1.20;;;5.30;99.90;;;;;;5034429;28;20240;-88
2024/02/14 02:40:15;;;;;;;2.77;1.40;;;5.30;99.90;;;;;;5030511;28;20273;-88
2024/02/14 02:42:41;;;;;;;2.00;1.10;;;5.30;99.90;;;;;;5024373;28;20260;-88
2024/02/14 02:45:07;;;;;;;2.67;1.50;;;5.30;99.90;;;;;;5028848;28;20189;-88
2024/02/14 02:47:33;;;;;;;2.63;1.53;;;5.30;99.90;;;;;;5035803;28;20228;-88
2024/02/14 02:50:02;;;;;;;4.00;1.50;;;5.40;99.90;;;;;;5053699;28;20213;-88
2024/02/14 02:52:28;;;;;;;3.37;1.63;;;5.40;99.90;;;;;;5025858;28;20273;-87
2024/02/14 02:54:54;;;;;;;3.30;1.30;;;5.30;99.90;;;;;;5035252;28;20221;-88
2024/02/14 02:57:20;;;;;;;4.77;1.40;;;5.40;99.90;;;;;;5038650;28;20200;-88
2024/02/14 02:59:47;;;;;;;3.10;1.40;;;5.40;99.90;;;;;;5056394;28;20529;-87
2024/02/14 03:02:16;;;;;;;4.70;1.43;;;5.40;99.90;;;;;;5038523;28;20274;-87
2024/02/14 03:04:42;;;;;;;4.43;1.47;;;5.40;99.90;;;;;;5036973;28;20260;-88
2024/02/14 03:07:08;;;;;;;2.93;1.73;;;5.40;99.90;;;;;;5038315;28;20214;-88
2024/02/14 03:09:41;;;;;;;5.37;1.77;;;5.50;99.90;;;;;;5030318;28;20192;-88
2024/02/14 03:12:08;;;;;;;3.20;1.60;;;5.50;99.90;;;;;;5030540;28;20532;-89
2024/02/14 03:14:36;;;;;;;5.03;1.90;;;5.50;99.90;;;;;;5038324;28;20193;-89
2024/02/14 03:17:02;;;;;;;2.17;1.40;;;5.40;99.90;;;;;;5034940;28;20218;-89
2024/02/14 03:19:30;;;;;;;2.93;1.47;;;5.40;99.90;;;;;;5026971;28;20621;-87
2024/02/14 03:21:57;;;;;;;4.80;1.63;;;5.40;99.90;;;;;;5034590;28;20675;-89
2024/02/14 03:24:26;;;;;;;4.07;1.70;;;5.40;99.90;;;;;;5030591;28;20676;-87
2024/02/14 03:26:53;;;;;;;3.57;1.70;;;5.40;99.90;;;;;;5024342;28;20186;-88
2024/02/14 03:29:21;;;;;;;4.37;1.97;;;5.40;99.90;;;;;;5034707;28;20221;-89
2024/02/14 03:31:47;;;;;;;3.47;1.90;;;5.40;99.90;;;;;;5027918;28;20194;-89
2024/02/14 03:34:14;;;;;;;2.93;1.90;;;5.40;99.90;;;;;;5033386;28;20269;-89
2024/02/14 03:36:40;;;;;;;2.70;1.87;;;5.40;99.90;;;;;;5028592;28;20209;-89
2024/02/14 03:39:06;;;;;;;5.50;1.97;;;5.40;99.90;;;;;;5031312;28;20190;-89
2024/02/14 03:41:32;;;;;;;4.63;1.87;;;5.50;99.90;;;;;;5028010;28;20601;-89
2024/02/14 03:44:03;;;;;;;6.30;2.20;;;5.50;99.90;;;;;;5034893;28;20641;-90
2024/02/14 03:46:30;;;;;;;5.67;2.40;;;5.50;99.90;;;;;;5034696;28;20236;-90
2024/02/14 03:48:56;;;;;;;7.23;1.90;;;5.60;99.90;;;;;;5035558;28;20181;-90
2024/02/14 03:51:25;;;;;;;4.37;2.10;;;5.60;99.90;;;;;;5034445;28;20205;-89
2024/02/14 03:53:51;;;;;;;7.63;2.40;;;5.60;99.90;;;;;;5034445;28;20182;-91
2024/02/14 03:56:17;;;;;;;6.57;2.10;;;5.60;99.90;;;;;;5026774;28;20186;-90
2024/02/14 03:58:43;;;;;;;5.20;2.57;;;5.70;99.90;;;;;;5034809;28;20187;-90
2024/02/14 04:01:15;;;;;;;3.80;2.30;;;5.70;99.90;;;;;;5032630;28;20596;-90
2024/02/14 04:03:41;;;;;;;3.77;1.97;;;5.70;99.90;;;;;;5029709;28;20960;-91
2024/02/14 04:06:07;;;;;;;3.10;2.23;;;5.70;99.90;;;;;;5034036;28;20195;-91
2024/02/14 04:08:33;;;;;;;5.67;2.60;;;5.70;99.90;;;;;;5034522;28;20647;-90
2024/02/14 04:10:59;;;;;;;5.43;2.37;;;5.80;99.90;;;;;;5034002;28;20513;-90
2024/02/14 04:13:24;;;;;;;3.90;2.30;;;5.80;99.90;;;;;;5031090;28;20237;-90
2024/02/14 04:15:50;;;;;;;5.93;2.50;;;5.80;99.90;;;;;;5030476;28;20621;-89
2024/02/14 04:18:17;;;;;;;5.03;2.50;;;5.80;99.90;;;;;;5025632;28;20245;-90
2024/02/14 04:20:44;;;;;;;3.40;2.10;;;5.70;99.90;;;;;;5027177;28;20306;-90
2024/02/14 04:23:10;;;;;;;5.53;2.27;;;5.70;99.90;;;;;;5033162;28;20663;-88
2024/02/14 04:25:36;;;;;;;3.93;2.40;;;5.70;99.90;;;;;;5053884;28;20191;-86
2024/02/14 04:28:05;;;;;;;5.20;2.30;;;5.70;99.90;;;;;;5031680;28;20573;-90
2024/02/14 04:30:36;;;;;;;4.87;2.30;;;5.80;99.90;;;;;;5033893;28;20217;-90
2024/02/14 04:33:02;;;;;;;5.03;2.47;;;5.80;99.90;;;;;;5033897;28;20190;-89
2024/02/14 04:35:28;;;;;;;6.90;2.80;;;5.80;99.90;;;;;;5033716;28;20197;-89
2024/02/14 04:37:55;;;;;;;4.40;2.43;;;5.70;99.90;;;;;;5033816;28;20190;-89
2024/02/14 04:40:21;;;;;;;4.53;2.70;;;5.70;99.90;;;;;;5033378;28;20209;-89
2024/02/14 04:42:46;;;;;;;8.30;2.73;;;5.60;99.90;;;;;;5018405;28;20202;-90
2024/02/14 04:45:13;;;;;;;8.60;2.60;;;5.60;99.90;;;;;;5033757;28;20217;-90
2024/02/14 04:47:39;;;;;;;9.53;2.50;;;5.60;99.90;;;;;;5033589;28;20190;-90
2024/02/14 04:50:05;;;;;;;5.40;2.67;;;5.60;99.90;;;;;;5033393;28;20770;-90
2024/02/14 04:52:31;;;;;;;7.13;2.50;;;5.60;99.90;;;;;;5033122;28;20190;-90
2024/02/14 04:54:57;;;;;;;4.27;2.50;;;5.60;99.90;;;;;;5025927;28;20251;-90
2024/02/14 04:57:23;;;;;;;5.33;2.40;;;5.60;99.90;;;;;;5033249;28;20502;-89
2024/02/14 04:59:49;;;;;;;7.77;2.67;;;5.60;99.90;;;;;;5033580;28;20236;-89
2024/02/14 05:02:17;;;;;;;4.90;2.50;;;5.60;99.90;;;;;;5033761;28;20305;-89
2024/02/14 05:04:44;;;;;;;7.10;2.70;;;5.60;99.90;;;;;;5035336;28;20206;-90
2024/02/14 05:07:10;;;;;;;7.60;2.67;;;5.60;99.90;;;;;;5034806;28;20193;-91
2024/02/14 05:09:35;;;;;;;5.43;2.40;;;5.60;99.90;;;;;;5037451;28;20182;-89
2024/02/14 05:12:03;;;;;;;6.47;2.70;;;5.70;99.90;;;;;;5037342;28;20240;-90
2024/02/14 05:14:31;;;;;;;7.57;2.90;;;5.70;99.90;;;;;;5037436;28;20273;-90
2024/02/14 05:16:57;;;;;;;4.10;2.40;;;5.70;99.90;;;;;;5032335;28;20229;-90
2024/02/14 05:19:23;;;;;;;4.27;2.30;;;5.70;99.90;;;;;;5036891;28;20621;-89
2024/02/14 05:21:50;;;;;;;5.67;2.27;;;5.70;99.90;;;;;;5021051;28;20218;-90
2024/02/14 05:24:16;;;;;;;4.50;2.30;;;5.80;99.90;;;;;;5029748;28;20182;-89
2024/02/14 05:26:41;;;;;;;7.30;2.40;;;5.80;99.90;;;;;;5035240;28;20192;-90
2024/02/14 05:29:07;;;;;;;8.00;2.40;;;5.80;99.90;;;;;;5058319;28;20178;-90
2024/02/14 05:31:44;;;;;;;3.53;2.23;;;5.80;99.90;;;;;;5040707;28;20678;-89
2024/02/14 05:34:10;;;;;;;5.00;2.43;;;5.70;99.90;;;;;;5032323;28;20205;-89
2024/02/14 05:36:36;;;;;;;3.73;2.40;;;5.70;99.90;;;;;;5040255;28;20185;-89
2024/02/14 05:39:03;;;;;;;6.53;2.30;;;5.70;99.90;;;;;;5058086;28;20177;-87
2024/02/14 05:41:35;;;;;;;5.77;2.77;;;5.80;99.90;;;;;;5039782;28;20224;-88
2024/02/14 05:44:01;;;;;;;7.37;2.53;;;5.80;99.90;;;;;;5040152;28;20276;-87
2024/02/14 05:46:27;;;;;;;6.53;2.47;;;5.80;99.90;;;;;;5057850;28;20213;-88
2024/02/14 05:48:54;;;;;;;7.73;2.27;;;5.80;99.90;;;;;;5040024;28;20182;-87
2024/02/14 05:51:22;;;;;;;7.90;2.23;;;5.90;99.90;;;;;;5032358;28;20528;-87
2024/02/14 05:53:48;;;;;;;9.07;2.40;;;5.90;99.90;;;;;;5039884;28;20193;-85
2024/02/14 05:56:13;;;;;;;5.10;2.60;;;5.90;99.90;;;;;;5032292;28;20276;-88
2024/02/14 05:58:39;;;;;;;7.17;2.20;;;5.90;99.90;;;;;;5039451;28;20186;-87
2024/02/14 06:01:06;;;;;;;5.00;2.37;;;5.90;99.90;;;;;;5039466;28;20544;-87
2024/02/14 06:03:32;;;;;;;3.13;2.03;;;5.90;99.90;;;;;;5031518;28;20226;-87
2024/02/14 06:05:58;;;;;;;4.37;2.07;;;5.90;99.90;;;;;;5039592;28;20674;-86
2024/02/14 06:08:26;;;;;;;6.40;2.40;;;5.90;99.90;;;;;;5039236;28;20229;-87
2024/02/14 06:10:53;;;;;;;5.53;2.17;;;5.90;99.90;;;;;;5039111;28;20185;-88
2024/02/14 06:13:19;;;;;;;6.57;2.57;;;5.90;99.90;;;;;;5053939;28;20527;-86
2024/02/14 06:15:45;;;;;;;5.37;2.27;;;5.90;99.90;;;;;;5052548;28;20185;-87
2024/02/14 06:18:11;;;;;;;6.13;2.40;;;5.90;99.90;;;;;;5038843;28;20244;-87
2024/02/14 06:20:39;;;;;;;7.40;2.43;;;5.90;99.90;;;;;;5039230;28;20210;-84
2024/02/14 06:23:05;;;;;;;7.93;2.10;;;5.90;99.90;;;;;;5038574;28;20200;-86
2024/02/14 06:25:31;;;;;;;11.53;2.57;;;6.00;99.90;;;;;;5031127;28;20182;-86
2024/02/14 06:27:57;;;;;;;6.33;2.30;;;6.00;99.90;;;;;;5030721;28;20190;-86
2024/02/14 06:30:22;;;;;;;5.33;2.37;;;6.00;99.90;;;;;;5054341;28;20244;-86
2024/02/14 06:32:48;;;;;;;6.40;2.30;;;6.00;99.90;;;;;;5034420;28;20247;-85
2024/02/14 06:35:15;;;;;;;6.87;2.80;;;6.00;99.90;;;;;;5056238;28;20205;-84
2024/02/14 06:37:41;;;;;;;5.27;2.13;;;6.00;99.90;;;;;;5038753;28;20293;-85
2024/02/14 06:40:08;;;;;;;4.50;2.30;;;6.00;99.90;;;;;;5056358;28;20214;-86
2024/02/14 06:42:36;;;;;;;5.30;2.53;;;6.00;99.90;;;;;;5038958;28;20223;-85
2024/02/14 06:45:03;;;;;;;5.07;2.20;;;6.00;99.90;;;;;;5038879;28;20188;-86
2024/02/14 06:47:29;;;;;;;7.33;2.37;;;6.00;99.90;;;;;;5038847;28;20186;-85
2024/02/14 06:49:58;;;;;;;6.40;2.27;;;6.10;99.90;;;;;;5038504;28;20189;-84
2024/02/14 06:52:24;;;;;;;6.93;2.43;;;6.00;99.90;;;;;;5038413;28;20186;-86
2024/02/14 06:54:50;;;;;;;4.90;2.27;;;6.10;99.90;;;;;;5049359;28;20190;-87
2024/02/14 06:57:17;;;;;;;8.63;2.73;;;6.00;99.90;;;;;;5029630;28;20181;-87
2024/02/14 06:59:43;;;;;;;2.83;2.20;;;6.00;99.90;;;;;;5038495;28;20185;-85
2024/02/14 07:02:13;;;;;;;5.20;2.50;;;6.10;99.90;;;;;;5038236;28;20243;-81
2024/02/14 07:04:39;;;;;;;6.90;2.57;;;6.10;99.90;;;;;;5037897;28;20182;-86
2024/02/14 07:07:05;;;;;;;6.73;2.37;;;6.10;99.90;;;;;;5038172;28;20197;-85
2024/02/14 07:09:32;;;;;;;5.73;2.07;;;6.10;99.90;;;;;;5038090;28;20178;-85
2024/02/14 07:11:58;;;;;;;6.87;2.40;;;6.10;99.90;;;;;;5055393;28;20182;-86
2024/02/14 07:14:24;;;;;;;7.47;3.03;;;6.20;99.90;;;;;;5038099;28;20189;-85
2024/02/14 07:16:50;;;;;;;4.50;2.40;;;6.10;99.90;;;;;;5037837;28;20189;-86
2024/02/14 07:19:19;;;;;;;5.50;2.40;;;6.20;99.90;;;;;;5038110;28;20651;-85
2024/02/14 07:21:45;;;;;;;5.17;2.67;;;6.20;99.90;;;;;;5038241;28;20221;-86
2024/02/14 07:24:11;;;;;;;4.07;2.50;;;6.20;99.90;;;;;;5036461;28;20188;-85
2024/02/14 07:26:36;;;;;;;3.73;2.43;;;6.30;99.90;;;;;;5049616;28;20695;-86
2024/02/14 07:29:03;;;;;;;7.03;2.57;;;6.30;99.90;;;;;;5037753;28;20186;-85
2024/02/14 07:31:30;;;;;;;3.00;2.20;;;6.40;99.90;;;;;;5037379;28;20235;-86
2024/02/14 07:33:56;;;;;;;3.97;2.20;;;6.40;99.90;;;;;;5029699;28;20185;-87
2024/02/14 07:36:22;;;;;;;8.90;2.40;;;6.40;99.90;;;;;;5055853;28;20264;-87
2024/02/14 07:38:48;;;;;;;4.23;2.20;;;6.40;99.90;;;;;;5038035;28;20643;-87
2024/02/14 07:41:13;;;;;;;6.03;2.60;;;6.40;99.90;;;;;;5037276;28;20217;-87
2024/02/14 07:43:42;;;;;;;9.00;2.93;;;6.50;99.90;;;;;;5037946;28;20186;-87
2024/02/14 07:46:09;;;;;;;8.37;2.60;;;6.50;99.90;;;;;;5037207;28;20243;-86
2024/02/14 07:48:35;;;;;;;14.37;3.40;;;6.50;99.90;;;;;;5055071;28;20173;-87
2024/02/14 07:51:01;;;;;;;7.53;2.90;;;6.60;99.90;;;;;;5036634;28;20192;-87
2024/02/14 07:53:27;;;;;;;9.60;3.30;;;6.60;99.90;;;;;;5026113;28;20581;-87
2024/02/14 07:55:54;;;;;;;6.77;3.03;;;6.60;99.90;;;;;;5018549;28;20183;-86
2024/02/14 07:58:20;;;;;;;19.03;3.77;;;6.60;99.90;;;;;;5021439;28;20212;-87
2024/02/14 08:00:46;;;;;;;7.83;3.47;;;6.60;99.90;;;;;;5029629;28;20205;-90
2024/02/14 08:03:14;;;;;;;15.67;3.60;;;6.60;99.90;;;;;;5029338;28;20527;-87
2024/02/14 08:05:41;;;;;;;8.33;3.47;;;6.60;99.90;;;;;;5037613;28;20199;-90
2024/02/14 08:08:07;;;;;;;8.43;3.43;;;6.60;99.90;;;;;;5036820;28;20182;-88
2024/02/14 08:10:32;;;;;;;7.10;3.50;;;6.60;99.90;;;;;;5037024;28;20193;-89
2024/02/14 08:12:59;;;;;;;8.27;3.30;;;6.70;99.90;;;;;;5055332;28;20264;-87
2024/02/14 08:15:25;;;;;;;7.70;3.30;;;6.70;99.90;;;;;;5037722;28;20213;-87
2024/02/14 08:17:55;;;;;;;6.23;3.10;;;6.70;99.90;;;;;;5037143;28;20320;-87
2024/02/14 08:20:21;;;;;;;9.70;3.83;;;6.70;99.90;;;;;;5037226;28;20251;-86
2024/02/14 08:22:47;;;;;;;5.20;3.37;;;6.70;99.90;;;;;;5037459;28;20194;-87
2024/02/14 08:25:12;;;;;;;4.67;2.97;;;6.80;99.90;;;;;;5029808;28;20625;-86
2024/02/14 08:27:38;;;;;;;9.00;3.43;;;6.80;99.90;;;;;;5037562;28;20185;-87
2024/02/14 08:30:06;;;;;;;6.97;3.37;;;6.80;99.90;;;;;;5021106;28;20686;-87
2024/02/14 08:32:36;;;;;;;5.10;3.40;;;6.80;99.90;;;;;;5037243;28;20185;-88
2024/02/14 08:35:02;;;;;;;9.57;3.47;;;6.80;99.90;;;;;;5037067;28;20193;-90
2024/02/14 08:37:27;;;;;;;9.37;4.20;;;6.90;99.90;;;;;;5037428;28;20190;-88
2024/02/14 08:39:53;;;;;;;11.30;3.50;;;6.90;99.90;;;;;;5021028;28;20190;-87
2024/02/14 08:42:20;;;;;;;7.93;3.40;;;6.90;99.90;;;;;;5028334;28;20267;-87
2024/02/14 08:44:46;;;;;;;6.30;3.50;;;6.90;99.90;;;;;;5055080;28;20185;-87
2024/02/14 08:47:13;;;;;;;5.43;3.07;;;6.90;99.90;;;;;;5037180;28;20699;-88
2024/02/14 08:49:41;;;;;;;7.30;3.33;;;6.90;99.90;;;;;;5037081;28;20236;-88
2024/02/14 08:52:08;;;;;;;5.13;2.87;;;6.90;99.90;;;;;;5036870;28;20666;-87
2024/02/14 08:54:34;;;;;;;11.90;3.33;;;6.90;99.90;;;;;;5046628;28;20654;-88
2024/02/14 08:57:00;;;;;;;6.43;3.30;;;6.90;99.90;;;;;;5028668;28;20221;-87
2024/02/14 08:59:26;;;;;;;8.03;3.33;;;6.90;99.90;;;;;;5050567;28;20186;-90
2024/02/14 09:01:52;;;;;;;6.20;3.50;;;6.90;99.90;;;;;;5025655;28;20900;-87
2024/02/14 09:04:18;;;;;;;7.03;2.87;;;6.90;99.90;;;;;;5036842;28;20190;-88
2024/02/14 09:06:44;;;;;;;7.77;2.50;;;7.00;99.90;;;;;;5048207;28;20609;-89
2024/02/14 09:09:10;;;;;;;5.57;2.60;;;7.00;99.90;;;;;;5035348;28;20231;-90
2024/02/14 09:11:36;;;;;;;6.57;3.00;;;7.00;99.90;;;;;;5036582;28;20192;-87
2024/02/14 09:14:06;;;;;;;5.63;2.97;;;7.10;99.90;;;;;;5028533;28;20186;-87
2024/02/14 09:16:33;;;;;;;4.77;2.50;;;7.10;99.90;;;;;;5023990;28;20191;-91
2024/02/14 09:19:00;;;;;;;4.33;2.50;;;7.20;99.90;;;;;;5040927;28;20233;-86
2024/02/14 09:21:27;;;;;;;3.17;2.60;;;7.20;99.90;;;;;;5025217;28;20241;-88
2024/02/14 09:23:56;;;;;;;6.93;3.10;;;7.30;99.90;;;;;;5033458;28;20201;-89
2024/02/14 09:26:22;;;;;;;4.77;3.13;;;7.30;99.90;;;;;;5017220;28;20240;-90
2024/02/14 09:28:48;;;;;;;5.67;3.00;;;7.30;99.90;;;;;;5043008;28;20186;-87
2024/02/14 09:31:21;;;;;;;6.87;3.00;;;7.30;99.90;;;;;;5051030;28;20182;-88
2024/02/14 09:33:58;;;;;;;3.63;2.63;;;7.30;99.90;;;;;;5042881;28;20186;-91
2024/02/14 09:36:25;;;;;;;4.37;2.93;;;7.30;99.90;;;;;;5035475;28;20181;-87
2024/02/14 09:38:54;;;;;;;3.13;2.23;;;7.30;99.90;;;;;;5025078;28;20194;-90
2024/02/14 09:41:36;;;;;;;3.57;2.60;;;7.40;99.90;;;;;;5024822;28;20222;-86
2024/02/14 09:44:04;;;;;;;4.20;2.53;;;7.40;99.90;;;;;;5034114;28;20214;-90
2024/02/14 09:46:30;;;;;;;4.53;2.57;;;7.40;99.90;;;;;;5032041;28;20182;-88
2024/02/14 09:48:59;;;;;;;4.67;2.70;;;7.40;99.90;;;;;;5025362;28;20264;-88
2024/02/14 09:51:25;;;;;;;4.07;2.73;;;7.40;99.90;;;;;;5024888;28;20194;-89
2024/02/14 09:53:53;;;;;;;5.07;2.90;;;7.40;99.90;;;;;;5025804;28;20182;-89
2024/02/14 09:56:22;;;;;;;3.80;2.83;;;7.50;99.90;;;;;;5031549;28;20190;-86
2024/02/14 09:58:55;;;;;;;5.50;2.70;;;7.50;99.90;;;;;;5057764;28;20244;-87
2024/02/14 10:01:23;;;;;;;4.77;2.60;;;7.60;99.90;;;;;;5031916;28;20206;-86
2024/02/14 10:03:52;;;;;;;8.93;3.20;;;7.70;99.90;;;;;;5024302;28;20273;-85
2024/02/14 10:06:22;;;;;;;4.23;3.00;;;7.70;99.90;;;;;;5036457;28;20556;-85
2024/02/14 10:08:50;;;;;;;4.63;2.93;;;7.80;99.90;;;;;;5035446;28;20178;-91
2024/02/14 10:11:21;;;;;;;4.30;3.03;;;7.80;99.90;;;;;;5054403;28;20190;-88
2024/02/14 10:13:47;;;;;;;5.67;3.17;;;7.80;99.90;;;;;;5028367;28;20705;-89
2024/02/14 10:16:18;;;;;;;5.87;2.80;;;7.90;99.90;;;;;;5036208;28;20186;-89
2024/02/14 10:18:46;;;;;;;5.53;3.67;;;7.90;99.90;;;;;;5024393;28;20231;-86
2024/02/14 10:21:19;;;;;;;7.57;3.60;;;7.90;99.90;;;;;;5060065;28;20218;-90
2024/02/14 10:23:46;;;;;;;3.87;3.47;;;7.90;99.90;;;;;;5036320;28;20187;-86
2024/02/14 10:26:14;;;;;;;6.07;3.60;;;7.90;99.90;;;;;;5025483;28;20687;-87
2024/02/14 10:28:43;;;;;;;5.00;3.53;;;7.90;99.90;;;;;;5030658;28;20186;-87
2024/02/14 10:31:11;;;;;;;7.17;3.93;;;7.90;99.90;;;;;;5027875;28;20525;-85
2024/02/14 10:33:37;;;;;;;5.13;3.67;;;7.90;99.90;;;;;;5035870;28;20194;-87
2024/02/14 10:36:07;;;;;;;9.07;4.57;;;8.00;99.90;;;;;;5019567;28;20210;-87
2024/02/14 10:38:33;;;;;;;8.57;4.00;;;8.10;99.90;;;;;;5029613;28;20596;-90
2024/02/14 10:41:02;;;;;;;5.90;3.93;;;8.10;99.90;;;;;;5035389;28;20214;-88
2024/02/14 10:43:29;;;;;;;5.50;3.77;;;8.10;99.90;;;;;;5035741;28;20197;-88
2024/02/14 10:45:58;;;;;;;5.23;3.53;;;8.00;99.90;;;;;;5027759;28;20253;-84
2024/02/14 10:48:25;;;;;;;4.37;3.07;;;8.10;99.90;;;;;;5061090;28;20194;-89
2024/02/14 10:50:54;;;;;;;4.07;3.67;;;8.10;99.90;;;;;;5027553;28;20240;-86
2024/02/14 10:53:22;;;;;;;7.93;3.50;;;8.10;99.90;;;;;;5024016;28;20195;-86
2024/02/14 10:55:51;;;;;;;5.80;3.20;;;8.10;99.90;;;;;;5031041;28;20679;-87
2024/02/14 10:58:17;;;;;;;4.93;3.20;;;8.10;99.90;;;;;;5019232;28;20552;-87
2024/02/14 11:00:47;;;;;;;12.13;3.93;;;8.10;99.90;;;;;;5027217;28;20210;-88
2024/02/14 11:03:15;;;;;;;6.10;3.90;;;8.20;99.90;;;;;;5027232;28;20236;-85
2024/02/14 11:06:00;;;;;;;4.83;3.40;;;8.20;99.90;;;;;;5034998;28;20186;-87
2024/02/14 11:08:32;;;;;;;7.23;3.63;;;8.20;99.90;;;;;;5016539;28;20325;-88
2024/02/14 11:10:59;;;;;;;7.22;3.50;;;8.30;99.90;;;;;;5032683;28;20183;-88
2024/02/14 11:13:32;;;;;;;8.93;3.63;;;8.30;99.90;;;;;;5023697;28;20195;-90
2024/02/14 11:16:02;;;;;;;5.80;3.38;;;8.30;99.90;;;;;;5031975;28;20194;-86
2024/02/14 11:18:35;;;;;;;7.57;3.70;;;8.40;99.90;;;;;;5026775;28;20247;-87
2024/02/14 11:21:04;;;;;;;7.33;4.20;;;8.60;99.90;;;;;;5025807;28;20243;-86
2024/02/14 11:23:31;;;;;;;5.88;3.60;;;8.70;99.90;;;;;;5048202;28;20194;-88
2024/02/14 11:26:15;;;;;;;5.50;3.90;;;8.80;99.90;;;;;;5030329;28;20183;-85
2024/02/14 11:28:42;;;;;;;5.82;4.00;;;8.80;99.90;;;;;;5034690;28;20182;-86
2024/02/14 11:31:09;;;;;;;8.07;4.22;;;8.90;99.90;;;;;;5035716;28;20182;-88
2024/02/14 11:33:35;;;;;;;5.90;3.60;;;9.00;99.90;;;;;;5026229;28;20186;-86
2024/02/14 11:36:11;;;;;;;4.25;3.55;;;9.00;99.90;;;;;;5034444;28;20194;-86
2024/02/14 11:38:37;;;;;;;7.22;3.50;;;9.00;99.90;;;;;;5020937;28;20265;-86
2024/02/14 11:41:03;;;;;;;4.00;3.22;;;9.00;99.90;;;;;;5032012;28;20301;-85
2024/02/14 11:43:30;;;;;;;5.35;3.28;;;9.00;99.90;;;;;;5034254;28;20532;-85
2024/02/14 11:45:56;;;;;;;7.70;3.33;;;8.90;99.90;;;;;;5033343;28;20186;-84
2024/02/14 11:48:25;;;;;;;7.25;3.30;;;8.90;99.90;;;;;;5025925;28;20531;-87
2024/02/14 11:50:55;;;;;;;4.80;3.60;;;9.00;99.90;;;;;;5033857;28;20226;-85
2024/02/14 11:53:21;;;;;;;4.55;3.30;;;9.00;99.90;;;;;;5019434;28;20170;-86
2024/02/14 11:55:47;;;;;;;5.82;3.80;;;9.00;99.90;;;;;;5026995;28;20692;-85
2024/02/14 11:58:15;;;;;;;4.70;3.10;;;9.10;99.90;;;;;;5019480;28;20220;-84
2024/02/14 12:00:45;;;;;;;4.32;3.17;;;9.10;99.90;;;;;;5033896;28;20210;-87
2024/02/14 12:03:15;;;;;;;6.67;3.13;;;9.10;99.90;;;;;;5017336;28;20245;-85
2024/02/14 12:05:51;;;;;;;3.92;2.80;;;9.10;99.90;;;;;;5027098;28;20189;-89
2024/02/14 12:08:18;;;;;;;6.68;2.75;;;9.20;99.90;;;;;;5028444;28;20186;-85
2024/02/14 12:10:49;;;;;;;4.60;2.90;;;9.20;99.90;;;;;;5033676;28;20190;-89
2024/02/14 12:13:17;;;;;;;8.50;3.05;;;9.30;99.90;;;;;;5025892;28;20187;-90
2024/02/14 12:15:50;;;;;;;4.90;2.97;;;9.30;99.90;;;;;;5023358;28;20179;-92
2024/02/14 12:18:20;;;;;;;5.68;3.30;;;9.30;99.90;;;;;;5066275;28;20238;-87
2024/02/14 12:20:49;;;;;;;3.97;2.90;;;9.40;99.90;;;;;;5035319;28;20716;-88
2024/02/14 12:23:19;;;;;;;5.28;2.50;;;9.40;99.90;;;;;;5034156;28;20201;-89
2024/02/14 12:25:47;;;;;;;3.95;2.72;;;9.50;99.90;;;;;;5033979;28;20182;-86
2024/02/14 12:28:19;;;;;;;7.00;2.70;;;9.60;99.90;;;;;;5024366;28;20238;-88
2024/02/14 12:30:48;;;;;;;6.03;2.90;;;9.50;99.90;;;;;;5028784;28;20620;-86
2024/02/14 12:33:14;;;;;;;5.47;2.70;;;9.60;99.90;;;;;;5067332;28;20687;-87
2024/02/14 12:35:46;;;;;;;3.20;2.70;;;9.70;99.90;;;;;;5034035;28;20182;-89
2024/02/14 12:38:13;;;;;;;3.03;2.20;;;9.70;99.90;;;;;;5034008;28;20191;-88
2024/02/14 12:40:43;;;;;;;2.50;1.98;;;9.70;99.90;;;;;;5033617;28;20210;-88
2024/02/14 12:43:11;;;;;;;5.70;2.80;;;9.70;99.90;;;;;;5033819;28;21106;-87
2024/02/14 12:45:38;;;;;;;3.83;2.47;;;9.70;99.90;;;;;;5030475;28;20186;-90
2024/02/14 12:48:05;;;;;;;3.67;2.30;;;9.70;99.90;;;;;;5033754;28;20192;-87
2024/02/14 12:50:31;;;;;;;3.85;1.90;;;9.80;99.90;;;;;;5034787;28;20617;-88
2024/02/14 12:52:58;;;;;;;3.00;2.33;;;9.80;99.90;;;;;;5025681;28;20193;-87
2024/02/14 12:55:25;;;;;;;4.80;2.17;;;9.80;99.90;;;;;;5035052;28;20186;-86
2024/02/14 12:57:52;;;;;;;4.60;2.30;;;9.90;99.90;;;;;;5033733;28;20196;-87
2024/02/14 13:00:18;;;;;;;3.40;1.98;;;9.90;99.90;;;;;;5034584;28;20216;-87